Esmeralda — CCES — position and weather

sailwx.info

Track history (hours):
 
Tides and Currents Weather Stations Pressure Air Temp Water Temp Dewpoint Dewpoint Depression Visibility Wind Speed Wind Dir Waves Ship Positions

Esmeralda (Chile)

Last reported at 2017-Jun-25 12:00 UTC. Time now 2017-Jun-25 15:49 UTC.
Position N 45°00' W 061°06'.

Length 113 m; draft 7 m.

Type: Military. MMSI: 725019006.

Wind from 200 at 9 knots

Barometer 1006.0 mb
Air temperature 13.0 ° C
Visibility: greater than 0.0 NM
Dewpoint 13.0 ° C
Water temperature 11.0 ° C

Date/timePositionNaut miles runAvg speedWind from/ knotsBaromVisibWave heightAir tempDewpointWater temp
2017-Jun-25 12:00N 45°00' W 061°06'32 5.3 200 / 91006.0 0.0 13.013.011.0
2017-Jun-25 06:00N 44°36' W 061°36'31 5.1 260 / 131003.0 0.0 12.012.011.0
2017-Jun-25 00:00N 44°30' W 062°18'52 8.7 220 / 251001.0 0.0 13.013.012.0
2017-Jun-24 18:00N 44°00' W 063°18'46 7.6 220 / 321001.0 0.0 13.013.012.0
2017-Jun-24 12:00N 43°36' W 064°12'58 9.6 280 / 301002.0 0.0 12.012.012.0
2017-Jun-24 06:00N 43°12' W 065°24'54 9.0 200 / 271006.0 0.0 12.812.813.0
2017-Jun-24 00:00N 43°00' W 066°36'49 8.1 190 / 251006.5 0.1 12.212.213.0
2017-Jun-23 18:00N 42°54' W 067°42'44 7.4 210 / 181008.0 0.1 14.014.013.0
2017-Jun-23 12:00N 42°48' W 068°42'31 5.2 210 / 181009.035.1 16.010.813.0
2017-Jun-23 06:00N 42°42' W 069°24'11 9.4 230 / 101010.5 5.4 17.013.614.0
2017-Jun-23 04:52N 42°42' W 069°38'7 5.0
2017-Jun-23 03:26N 42°44' W 069°48'3 5.5
2017-Jun-23 02:58N 42°44' W 069°51'2 5.1
2017-Jun-23 02:30N 42°44' W 069°54'2 4.8
2017-Jun-23 02:00N 42°45' W 069°58'3 5.2
2017-Jun-23 01:31N 42°45' W 070°01'2 4.7
2017-Jun-23 01:00N 42°45' W 070°04'2 4.2
2017-Jun-23 00:30N 42°44' W 070°07'3 5.1
2017-Jun-23 00:00N 42°44' W 070°11'5126461323.1
2017-Jun-23 00:00S 42°42' W 070°12'512510365.0 190 / 161010.3 5.4 17.515.017.0
2017-Jun-22 23:30N 42°43' W 070°15'3 6.6
2017-Jun-22 23:00N 42°41' W 070°18'3 6.1
2017-Jun-22 22:30N 42°40' W 070°22'3 6.1
2017-Jun-22 22:00N 42°38' W 070°26'3 5.3
2017-Jun-22 21:30N 42°37' W 070°29'3 6.0
2017-Jun-22 21:00N 42°35' W 070°32'4 7.1
2017-Jun-22 20:30N 42°33' W 070°36'4 7.7
2017-Jun-22 20:00N 42°31' W 070°40'4 8.8
2017-Jun-22 19:30N 42°28' W 070°45'4 8.7
2017-Jun-22 19:00N 42°26' W 070°50'4 7.3
2017-Jun-22 18:30N 42°23' W 070°53'3 6.9
2017-Jun-22 18:00N 42°21' W 070°56'3 6.7
2017-Jun-22 17:31N 42°21' W 071°01'1 2.5
2017-Jun-22 16:58N 42°21' W 071°02'0 0.0
2017-Jun-22 16:28N 42°21' W 071°02'0 0.0
2017-Jun-22 15:58N 42°21' W 071°02'0 0.0
2017-Jun-22 15:28N 42°21' W 071°02'0 0.0
2017-Jun-22 14:58N 42°21' W 071°02'0 0.0
2017-Jun-22 13:58N 42°21' W 071°02'0 0.0
2017-Jun-22 13:28N 42°21' W 071°02'0 0.0
2017-Jun-22 12:58N 42°21' W 071°02'0 0.0
2017-Jun-22 12:28N 42°21' W 071°02'0 0.0
2017-Jun-22 11:58N 42°21' W 071°02'0 0.0
2017-Jun-22 11:28N 42°21' W 071°02'0 0.0
2017-Jun-22 10:58N 42°21' W 071°02'0 0.0
2017-Jun-22 10:28N 42°21' W 071°02'0 0.0
2017-Jun-22 09:58N 42°21' W 071°02'0 0.0
2017-Jun-22 09:25N 42°21' W 071°02'0 0.0
2017-Jun-22 08:58N 42°21' W 071°02'0 0.0
2017-Jun-22 08:28N 42°21' W 071°02'0 0.0
2017-Jun-22 07:58N 42°21' W 071°02'0 0.0
2017-Jun-22 07:28N 42°21' W 071°02'0 0.0
2017-Jun-22 06:58N 42°21' W 071°02'0 0.0
2017-Jun-22 06:28N 42°21' W 071°02'0 0.0
2017-Jun-22 05:58N 42°21' W 071°02'0 0.0
2017-Jun-22 05:28N 42°21' W 071°02'0 0.0
2017-Jun-22 04:58N 42°21' W 071°02'0 0.0
2017-Jun-22 04:28N 42°21' W 071°02'0 0.0
2017-Jun-22 03:52N 42°21' W 071°02'0 0.0
2017-Jun-22 03:28N 42°21' W 071°02'0 0.0
2017-Jun-22 02:58N 42°21' W 071°02'0 0.0
2017-Jun-22 02:28N 42°21' W 071°02'0 0.0
2017-Jun-22 01:58N 42°21' W 071°02'0 0.0
2017-Jun-22 01:28N 42°21' W 071°02'0 0.0
2017-Jun-22 00:58N 42°21' W 071°02'0 0.0
2017-Jun-22 00:28N 42°21' W 071°02'0 0.0
2017-Jun-21 23:58N 42°21' W 071°02'0 0.0
2017-Jun-21 23:28N 42°21' W 071°02'0 0.0
2017-Jun-21 22:58N 42°21' W 071°02'0 0.0
2017-Jun-21 22:25N 42°21' W 071°02'0 0.0
2017-Jun-21 21:58N 42°21' W 071°02'0 0.0
2017-Jun-21 21:28N 42°21' W 071°02'0 0.0
2017-Jun-21 20:58N 42°21' W 071°02'0 0.0
2017-Jun-21 20:28N 42°21' W 071°02'0 0.0
2017-Jun-21 19:58N 42°21' W 071°02'0 0.0
2017-Jun-21 19:28N 42°21' W 071°02'0 0.0
2017-Jun-21 18:58N 42°21' W 071°02'0 0.0
2017-Jun-21 18:28N 42°21' W 071°02'0 0.0
2017-Jun-21 17:58N 42°21' W 071°02'0 0.0
2017-Jun-21 17:28N 42°21' W 071°02'0 0.0
2017-Jun-21 16:58N 42°21' W 071°02'0 0.0
2017-Jun-21 16:28N 42°21' W 071°02'0 0.0
2017-Jun-21 15:58N 42°21' W 071°02'0 0.0
2017-Jun-21 15:28N 42°21' W 071°02'0 0.0
2017-Jun-21 14:55N 42°21' W 071°02'0 0.0
2017-Jun-21 14:28N 42°21' W 071°02'0 0.0
2017-Jun-21 13:28N 42°21' W 071°02'0 0.0
2017-Jun-21 12:55N 42°21' W 071°02'0 0.0
2017-Jun-21 12:28N 42°21' W 071°02'0 0.0
2017-Jun-21 11:58N 42°21' W 071°02'0 0.0
2017-Jun-21 11:28N 42°21' W 071°02'0 0.0
2017-Jun-21 10:58N 42°21' W 071°02'0 0.0
2017-Jun-21 10:28N 42°21' W 071°02'0 0.0
2017-Jun-21 09:58N 42°21' W 071°02'0 0.0
2017-Jun-21 09:28N 42°21' W 071°02'0 0.0
2017-Jun-21 08:58N 42°21' W 071°02'0 0.0
2017-Jun-21 08:28N 42°21' W 071°02'0 0.0
2017-Jun-21 07:58N 42°21' W 071°02'0 0.0
2017-Jun-21 07:28N 42°21' W 071°02'0 0.0
2017-Jun-21 06:58N 42°21' W 071°02'0 0.0
2017-Jun-21 06:28N 42°21' W 071°02'0 0.0
2017-Jun-21 05:58N 42°21' W 071°02'0 0.0
2017-Jun-21 05:28N 42°21' W 071°02'0 0.0
2017-Jun-21 04:58N 42°21' W 071°02'0 0.0
2017-Jun-21 04:28N 42°21' W 071°02'0 0.0
2017-Jun-21 03:58N 42°21' W 071°02'0 0.0
2017-Jun-21 03:28N 42°21' W 071°02'0 0.0
2017-Jun-21 02:58N 42°21' W 071°02'0 0.0
2017-Jun-21 02:28N 42°21' W 071°02'0 0.0
2017-Jun-21 01:58N 42°21' W 071°02'0 0.0
2017-Jun-21 01:28N 42°21' W 071°02'0 0.0
2017-Jun-21 00:58N 42°21' W 071°02'0 0.0
2017-Jun-21 00:28N 42°21' W 071°02'0 0.0
2017-Jun-20 23:58N 42°21' W 071°02'0 0.0
2017-Jun-20 23:28N 42°21' W 071°02'0 0.0
2017-Jun-20 22:58N 42°21' W 071°02'0 0.0
2017-Jun-20 22:28N 42°21' W 071°02'0 0.0
2017-Jun-20 21:58N 42°21' W 071°02'0 0.0
2017-Jun-20 21:28N 42°21' W 071°02'0 0.0
2017-Jun-20 20:58N 42°21' W 071°02'0 0.0
2017-Jun-20 20:28N 42°21' W 071°02'0 0.0
2017-Jun-20 19:58N 42°21' W 071°02'0 0.0
2017-Jun-20 19:28N 42°21' W 071°02'0 0.0
2017-Jun-20 18:58N 42°21' W 071°02'0 0.0
2017-Jun-20 18:28N 42°21' W 071°02'0 0.0
2017-Jun-20 17:58N 42°21' W 071°02'0 0.0
2017-Jun-20 17:28N 42°21' W 071°02'0 0.0
2017-Jun-20 16:58N 42°21' W 071°02'0 0.0
2017-Jun-20 16:28N 42°21' W 071°02'0 0.0
2017-Jun-20 15:58N 42°21' W 071°02'0 0.0
2017-Jun-20 15:28N 42°21' W 071°02'0 0.0
2017-Jun-20 14:58N 42°21' W 071°02'0 0.0
2017-Jun-20 13:58N 42°21' W 071°02'0 0.0
2017-Jun-20 13:28N 42°21' W 071°02'0 0.0
2017-Jun-20 12:58N 42°21' W 071°02'0 0.0
2017-Jun-20 12:28N 42°21' W 071°02'0 0.0
2017-Jun-20 11:58N 42°21' W 071°02'0 0.0
2017-Jun-20 11:28N 42°21' W 071°02'0 0.0
2017-Jun-20 10:55N 42°21' W 071°02'0 0.0
2017-Jun-20 10:28N 42°21' W 071°02'0 0.0
2017-Jun-20 09:58N 42°21' W 071°02'0 0.0
2017-Jun-20 09:28N 42°21' W 071°02'0 0.0
2017-Jun-20 08:58N 42°21' W 071°02'0 0.0
2017-Jun-20 08:28N 42°21' W 071°02'0 0.0
2017-Jun-20 07:58N 42°21' W 071°02'0 0.0
2017-Jun-20 07:28N 42°21' W 071°02'0 0.0
2017-Jun-20 06:58N 42°21' W 071°02'0 0.0
2017-Jun-20 06:28N 42°21' W 071°02'0 0.0
2017-Jun-20 05:58N 42°21' W 071°02'0 0.0
2017-Jun-20 05:28N 42°21' W 071°02'0 0.0
2017-Jun-20 04:58N 42°21' W 071°02'0 0.0
2017-Jun-20 04:28N 42°21' W 071°02'0 0.0
2017-Jun-20 03:55N 42°21' W 071°02'0 0.0
2017-Jun-20 03:25N 42°21' W 071°02'0 0.0
2017-Jun-20 02:58N 42°21' W 071°02'0 0.0
2017-Jun-20 02:28N 42°21' W 071°02'0 0.0
2017-Jun-20 01:58N 42°21' W 071°02'0 0.0
2017-Jun-20 01:28N 42°21' W 071°02'0 0.0
2017-Jun-20 00:58N 42°21' W 071°02'0 0.0
2017-Jun-20 00:28N 42°21' W 071°02'0 0.0
2017-Jun-19 23:58N 42°21' W 071°02'0 0.0
2017-Jun-19 23:28N 42°21' W 071°02'0 0.0
2017-Jun-19 22:58N 42°21' W 071°02'0 0.0
2017-Jun-19 22:28N 42°21' W 071°02'0 0.0
2017-Jun-19 21:58N 42°21' W 071°02'0 0.0
2017-Jun-19 21:28N 42°21' W 071°02'0 0.0
2017-Jun-19 20:58N 42°21' W 071°02'0 0.0
2017-Jun-19 20:28N 42°21' W 071°02'0 0.0
2017-Jun-19 19:55N 42°21' W 071°02'0 0.0
2017-Jun-19 19:28N 42°21' W 071°02'0 0.0
2017-Jun-19 18:58N 42°21' W 071°02'0 0.0
2017-Jun-19 18:25N 42°21' W 071°02'0 0.0
2017-Jun-19 17:58N 42°21' W 071°02'0 0.0
2017-Jun-19 17:28N 42°21' W 071°02'0 0.0
2017-Jun-19 16:58N 42°21' W 071°02'0 0.0
2017-Jun-19 16:28N 42°21' W 071°02'0 0.0
2017-Jun-19 15:55N 42°21' W 071°02'0 0.0
2017-Jun-19 15:25N 42°21' W 071°02'0 0.0
2017-Jun-19 14:58N 42°21' W 071°02'0 0.0
2017-Jun-19 13:58N 42°21' W 071°02'0 0.0
2017-Jun-19 13:28N 42°21' W 071°02'0 0.0
2017-Jun-19 12:58N 42°21' W 071°02'0 0.0
2017-Jun-19 12:28N 42°21' W 071°02'0 0.0
2017-Jun-19 11:58N 42°21' W 071°02'0 0.0
2017-Jun-19 11:28N 42°21' W 071°02'0 0.0
2017-Jun-19 10:58N 42°21' W 071°02'0 0.0
2017-Jun-19 10:28N 42°21' W 071°02'0 0.0
2017-Jun-19 09:58N 42°21' W 071°02'0 0.0
2017-Jun-19 09:28N 42°21' W 071°02'0 0.0
2017-Jun-19 08:58N 42°21' W 071°02'0 0.0
2017-Jun-19 08:28N 42°21' W 071°02'0 0.0
2017-Jun-19 07:58N 42°21' W 071°02'0 0.0
2017-Jun-19 07:28N 42°21' W 071°02'0 0.0
2017-Jun-19 06:58N 42°21' W 071°02'0 0.0
2017-Jun-19 06:28N 42°21' W 071°02'0 0.0
2017-Jun-19 05:58N 42°21' W 071°02'0 0.0
2017-Jun-19 05:28N 42°21' W 071°02'0 0.0
2017-Jun-19 04:58N 42°21' W 071°02'0 0.0
2017-Jun-19 04:28N 42°21' W 071°02'0 0.0
2017-Jun-19 03:55N 42°21' W 071°02'0 0.0
2017-Jun-19 03:28N 42°21' W 071°02'0 0.0
2017-Jun-19 02:58N 42°21' W 071°02'0 0.0
2017-Jun-19 02:28N 42°21' W 071°02'0 0.0
2017-Jun-19 01:55N 42°21' W 071°02'0 0.0
2017-Jun-19 01:28N 42°21' W 071°02'0 0.0
2017-Jun-19 00:58N 42°21' W 071°02'0 0.0
2017-Jun-19 00:28N 42°21' W 071°02'0 0.0
2017-Jun-18 23:52N 42°21' W 071°02'0 0.0
2017-Jun-18 23:28N 42°21' W 071°02'0 0.0
2017-Jun-18 22:58N 42°21' W 071°02'0 0.0
2017-Jun-18 22:28N 42°21' W 071°02'0 0.0
2017-Jun-18 21:58N 42°21' W 071°02'0 0.0
2017-Jun-18 21:28N 42°21' W 071°02'0 0.0
2017-Jun-18 20:58N 42°21' W 071°02'0 0.0
2017-Jun-18 20:25N 42°21' W 071°02'0 0.0
2017-Jun-18 19:58N 42°21' W 071°02'0 0.0
2017-Jun-18 19:28N 42°21' W 071°02'0 0.0
2017-Jun-18 18:58N 42°21' W 071°02'0 0.0
2017-Jun-18 18:28N 42°21' W 071°02'0 0.0
2017-Jun-18 17:58N 42°21' W 071°02'0 0.0
2017-Jun-18 17:28N 42°21' W 071°02'0 0.0
2017-Jun-18 16:58N 42°21' W 071°02'0 0.0
2017-Jun-18 16:28N 42°21' W 071°02'0 0.0
2017-Jun-18 15:58N 42°21' W 071°02'0 0.0
2017-Jun-18 15:28N 42°21' W 071°02'0 0.0
2017-Jun-18 14:58N 42°21' W 071°02'0 0.0
2017-Jun-18 13:58N 42°21' W 071°02'0 0.0
2017-Jun-18 13:28N 42°21' W 071°02'0 0.0
2017-Jun-18 12:55N 42°21' W 071°02'0 0.0
2017-Jun-18 12:28N 42°21' W 071°02'0 0.0
2017-Jun-18 11:58N 42°21' W 071°02'0 0.0
2017-Jun-18 11:28N 42°21' W 071°02'0 0.0
2017-Jun-18 10:58N 42°21' W 071°02'0 0.0
2017-Jun-18 10:28N 42°21' W 071°02'0 0.0
2017-Jun-18 09:58N 42°21' W 071°02'0 0.0
2017-Jun-18 09:28N 42°21' W 071°02'0 0.0
2017-Jun-18 08:58N 42°21' W 071°02'0 0.0
2017-Jun-18 08:28N 42°21' W 071°02'0 0.0
2017-Jun-18 07:58N 42°21' W 071°02'0 0.0
2017-Jun-18 07:28N 42°21' W 071°02'0 0.0
2017-Jun-18 06:58N 42°21' W 071°02'0 0.0
2017-Jun-18 06:28N 42°21' W 071°02'0 0.0
2017-Jun-18 05:58N 42°21' W 071°02'0 0.0
2017-Jun-18 05:28N 42°21' W 071°02'0 0.0
2017-Jun-18 04:58N 42°21' W 071°02'0 0.0
2017-Jun-18 04:28N 42°21' W 071°02'0 0.0
2017-Jun-18 03:49N 42°21' W 071°02'0 0.0
2017-Jun-18 03:28N 42°21' W 071°02'0 0.0
2017-Jun-18 02:58N 42°21' W 071°02'0 0.0
2017-Jun-18 02:28N 42°21' W 071°02'0 0.0
2017-Jun-18 01:58N 42°21' W 071°02'0 0.0
2017-Jun-18 01:25N 42°21' W 071°02'0 0.0
2017-Jun-18 00:55N 42°21' W 071°02'0 0.0
2017-Jun-18 00:28N 42°21' W 071°02'0 0.0
2017-Jun-17 23:52N 42°21' W 071°02'0 0.0
2017-Jun-17 23:28N 42°21' W 071°02'0 0.0
2017-Jun-17 22:55N 42°21' W 071°02'0 0.0
2017-Jun-17 22:28N 42°21' W 071°02'0 0.0
2017-Jun-17 21:58N 42°21' W 071°02'0 0.0
2017-Jun-17 21:19N 42°21' W 071°02'0 0.0
2017-Jun-17 20:58N 42°21' W 071°02'0 0.0
2017-Jun-17 20:28N 42°21' W 071°02'0 0.0
2017-Jun-17 19:58N 42°21' W 071°02'0 0.0
2017-Jun-17 19:28N 42°21' W 071°02'0 0.0
2017-Jun-17 19:00N 42°21' W 071°02'1 1.0
2017-Jun-17 18:30N 42°22' W 071°03'0 0.5
2017-Jun-17 18:00N 42°22' W 071°03'2 4.5
2017-Jun-17 17:30N 42°20' W 071°00'3 5.4
2017-Jun-17 17:01N 42°20' W 070°57'4 7.8
2017-Jun-17 16:30N 42°24' W 070°54'0 0.2
2017-Jun-17 15:59N 42°24' W 070°54'0 0.0
2017-Jun-17 15:29N 42°24' W 070°54'0 0.0
2017-Jun-17 14:59N 42°24' W 070°54'0 0.0
2017-Jun-17 14:29N 42°24' W 070°54'0 0.0
2017-Jun-17 13:29N 42°24' W 070°54'0 0.0
2017-Jun-17 12:59N 42°24' W 070°54'0 0.0
2017-Jun-17 12:29N 42°24' W 070°54'0 0.0
2017-Jun-17 11:59N 42°24' W 070°54'0 0.0
2017-Jun-17 11:29N 42°24' W 070°54'0 0.0
2017-Jun-17 10:59N 42°24' W 070°54'0 0.0
2017-Jun-17 10:29N 42°24' W 070°54'0 0.0
2017-Jun-17 09:59N 42°24' W 070°54'0 0.0
2017-Jun-17 09:29N 42°24' W 070°54'0 0.0
2017-Jun-17 08:59N 42°24' W 070°54'0 0.0
2017-Jun-17 08:29N 42°24' W 070°54'0 0.0
2017-Jun-17 07:53N 42°24' W 070°54'0 0.0
2017-Jun-17 07:23N 42°24' W 070°54'0 0.0
2017-Jun-17 06:59N 42°24' W 070°54'0 0.0
2017-Jun-17 06:29N 42°24' W 070°54'0 0.0
2017-Jun-17 05:59N 42°24' W 070°54'0 0.0
2017-Jun-17 05:23N 42°24' W 070°54'0 0.0
2017-Jun-17 04:59N 42°24' W 070°54'0 0.0
2017-Jun-17 04:29N 42°24' W 070°54'0 0.0
2017-Jun-17 03:59N 42°24' W 070°54'0 0.0
2017-Jun-17 03:29N 42°24' W 070°54'0 0.0
2017-Jun-17 02:59N 42°24' W 070°54'0 0.0
2017-Jun-17 02:29N 42°24' W 070°54'0 0.0
2017-Jun-17 01:56N 42°24' W 070°54'0 0.0
2017-Jun-17 01:29N 42°24' W 070°54'0 0.0
2017-Jun-17 00:59N 42°24' W 070°54'0 0.0
2017-Jun-17 00:29N 42°24' W 070°54'0 0.0
2017-Jun-16 23:59N 42°24' W 070°54'0 0.0
2017-Jun-16 23:29N 42°24' W 070°54'0 0.0
2017-Jun-16 22:59N 42°24' W 070°54'0 0.0
2017-Jun-16 22:29N 42°24' W 070°54'0 0.0
2017-Jun-16 21:56N 42°24' W 070°54'0 0.0
2017-Jun-16 21:29N 42°24' W 070°54'0 0.0
2017-Jun-16 20:59N 42°24' W 070°54'0 0.0
2017-Jun-16 20:29N 42°24' W 070°54'0 0.0
2017-Jun-16 19:59N 42°24' W 070°54'0 0.0
2017-Jun-16 19:29N 42°24' W 070°54'0 0.0
2017-Jun-16 18:59N 42°24' W 070°54'0 0.0
2017-Jun-16 18:29N 42°24' W 070°54'0 0.0
2017-Jun-16 17:59N 42°24' W 070°54'0 0.0
2017-Jun-16 17:29N 42°24' W 070°54'0 0.0
2017-Jun-16 16:59N 42°24' W 070°54'0 0.0
2017-Jun-16 16:29N 42°24' W 070°54'0 0.0
2017-Jun-16 15:59N 42°24' W 070°54'0 0.0
2017-Jun-16 15:29N 42°24' W 070°54'0 0.0
2017-Jun-16 14:59N 42°24' W 070°54'0 0.0
2017-Jun-16 14:29N 42°24' W 070°54'0 0.0
2017-Jun-16 13:29N 42°24' W 070°54'0 1.1
2017-Jun-16 13:00N 42°23' W 070°54'4 8.0
2017-Jun-16 12:30N 42°24' W 070°48'510.2
2017-Jun-16 12:00N 42°23' W 070°42'510.2
2017-Jun-16 11:30N 42°22' W 070°35'612.1
2017-Jun-16 11:00N 42°21' W 070°27'611.8
2017-Jun-16 10:30N 42°21' W 070°19'5 9.8
2017-Jun-16 10:00N 42°20' W 070°12'510.2
2017-Jun-16 09:30N 42°20' W 070°05'8 8.8
2017-Jun-16 08:37N 42°15' W 069°57'4 9.9
2017-Jun-16 08:12N 42°11' W 069°54'50392281.4
2017-Jun-16 06:00S 41°48' W 069°42'6310.4 120 / 141018.0 5.4 14.012.216.0
2017-Jun-16 00:00S 40°54' W 069°00'55 9.1 100 / 101017.5 5.4 16.5 9.716.0
2017-Jun-15 18:00S 40°00' W 069°12'50 8.4 090 / 121018.0 5.4 16.012.717.0
2017-Jun-15 12:00S 39°18' W 069°48'   140 / 191013.0 5.4 19.012.517.0
Track history (hours):
 
Tides and Currents Weather Stations Pressure Air Temp Water Temp Dewpoint Dewpoint Depression Visibility Wind Speed Wind Dir Waves Ship Positions

Esmeralda (Chile)

Last reported at 2017-Jun-25 12:00 UTC. Time now 2017-Jun-25 15:49 UTC.
Position N 45°00' W 061°06'.

Length 113 m; draft 7 m.

Type: Military. MMSI: 725019006.

Wind from 200 at 9 knots

Barometer 1006.0 mb
Air temperature 13.0 ° C
Visibility: greater than 0.0 NM
Dewpoint 13.0 ° C
Water temperature 11.0 ° C

Date/timePositionNaut miles runAvg speedWind from/ knotsBaromVisibWave heightAir tempDewpointWater temp
2017-Jun-25 12:00N 45°00' W 061°06'32 5.3 200 / 91006.0 0.0 13.013.011.0
2017-Jun-25 06:00N 44°36' W 061°36'31 5.1 260 / 131003.0 0.0 12.012.011.0
2017-Jun-25 00:00N 44°30' W 062°18'52 8.7 220 / 251001.0 0.0 13.013.012.0
2017-Jun-24 18:00N 44°00' W 063°18'46 7.6 220 / 321001.0 0.0 13.013.012.0
2017-Jun-24 12:00N 43°36' W 064°12'58 9.6 280 / 301002.0 0.0 12.012.012.0
2017-Jun-24 06:00N 43°12' W 065°24'54 9.0 200 / 271006.0 0.0 12.812.813.0
2017-Jun-24 00:00N 43°00' W 066°36'49 8.1 190 / 251006.5 0.1 12.212.213.0
2017-Jun-23 18:00N 42°54' W 067°42'44 7.4 210 / 181008.0 0.1 14.014.013.0
2017-Jun-23 12:00N 42°48' W 068°42'31 5.2 210 / 181009.035.1 16.010.813.0
2017-Jun-23 06:00N 42°42' W 069°24'11 9.4 230 / 101010.5 5.4 17.013.614.0
2017-Jun-23 04:52N 42°42' W 069°38'7 5.0
2017-Jun-23 03:26N 42°44' W 069°48'3 5.5
2017-Jun-23 02:58N 42°44' W 069°51'2 5.1
2017-Jun-23 02:30N 42°44' W 069°54'2 4.8
2017-Jun-23 02:00N 42°45' W 069°58'3 5.2
2017-Jun-23 01:31N 42°45' W 070°01'2 4.7
2017-Jun-23 01:00N 42°45' W 070°04'2 4.2
2017-Jun-23 00:30N 42°44' W 070°07'3 5.1
2017-Jun-23 00:00N 42°44' W 070°11'5126461323.1
2017-Jun-23 00:00S 42°42' W 070°12'512510365.0 190 / 161010.3 5.4 17.515.017.0
2017-Jun-22 23:30N 42°43' W 070°15'3 6.6
2017-Jun-22 23:00N 42°41' W 070°18'3 6.1
2017-Jun-22 22:30N 42°40' W 070°22'3 6.1
2017-Jun-22 22:00N 42°38' W 070°26'3 5.3
2017-Jun-22 21:30N 42°37' W 070°29'3 6.0
2017-Jun-22 21:00N 42°35' W 070°32'4 7.1
2017-Jun-22 20:30N 42°33' W 070°36'4 7.7
2017-Jun-22 20:00N 42°31' W 070°40'4 8.8
2017-Jun-22 19:30N 42°28' W 070°45'4 8.7
2017-Jun-22 19:00N 42°26' W 070°50'4 7.3
2017-Jun-22 18:30N 42°23' W 070°53'3 6.9
2017-Jun-22 18:00N 42°21' W 070°56'3 6.7
2017-Jun-22 17:31N 42°21' W 071°01'1 2.5
2017-Jun-22 16:58N 42°21' W 071°02'0 0.0
2017-Jun-22 16:28N 42°21' W 071°02'0 0.0
2017-Jun-22 15:58N 42°21' W 071°02'0 0.0
2017-Jun-22 15:28N 42°21' W 071°02'0 0.0
2017-Jun-22 14:58N 42°21' W 071°02'0 0.0
2017-Jun-22 13:58N 42°21' W 071°02'0 0.0
2017-Jun-22 13:28N 42°21' W 071°02'0 0.0
2017-Jun-22 12:58N 42°21' W 071°02'0 0.0
2017-Jun-22 12:28N 42°21' W 071°02'0 0.0
2017-Jun-22 11:58N 42°21' W 071°02'0 0.0
2017-Jun-22 11:28N 42°21' W 071°02'0 0.0
2017-Jun-22 10:58N 42°21' W 071°02'0 0.0
2017-Jun-22 10:28N 42°21' W 071°02'0 0.0
2017-Jun-22 09:58N 42°21' W 071°02'0 0.0
2017-Jun-22 09:25N 42°21' W 071°02'0 0.0
2017-Jun-22 08:58N 42°21' W 071°02'0 0.0
2017-Jun-22 08:28N 42°21' W 071°02'0 0.0
2017-Jun-22 07:58N 42°21' W 071°02'0 0.0
2017-Jun-22 07:28N 42°21' W 071°02'0 0.0
2017-Jun-22 06:58N 42°21' W 071°02'0 0.0
2017-Jun-22 06:28N 42°21' W 071°02'0 0.0
2017-Jun-22 05:58N 42°21' W 071°02'0 0.0
2017-Jun-22 05:28N 42°21' W 071°02'0 0.0
2017-Jun-22 04:58N 42°21' W 071°02'0 0.0
2017-Jun-22 04:28N 42°21' W 071°02'0 0.0
2017-Jun-22 03:52N 42°21' W 071°02'0 0.0
2017-Jun-22 03:28N 42°21' W 071°02'0 0.0
2017-Jun-22 02:58N 42°21' W 071°02'0 0.0
2017-Jun-22 02:28N 42°21' W 071°02'0 0.0
2017-Jun-22 01:58N 42°21' W 071°02'0 0.0
2017-Jun-22 01:28N 42°21' W 071°02'0 0.0
2017-Jun-22 00:58N 42°21' W 071°02'0 0.0
2017-Jun-22 00:28N 42°21' W 071°02'0 0.0
2017-Jun-21 23:58N 42°21' W 071°02'0 0.0
2017-Jun-21 23:28N 42°21' W 071°02'0 0.0
2017-Jun-21 22:58N 42°21' W 071°02'0 0.0
2017-Jun-21 22:25N 42°21' W 071°02'0 0.0
2017-Jun-21 21:58N 42°21' W 071°02'0 0.0
2017-Jun-21 21:28N 42°21' W 071°02'0 0.0
2017-Jun-21 20:58N 42°21' W 071°02'0 0.0
2017-Jun-21 20:28N 42°21' W 071°02'0 0.0
2017-Jun-21 19:58N 42°21' W 071°02'0 0.0
2017-Jun-21 19:28N 42°21' W 071°02'0 0.0
2017-Jun-21 18:58N 42°21' W 071°02'0 0.0
2017-Jun-21 18:28N 42°21' W 071°02'0 0.0
2017-Jun-21 17:58N 42°21' W 071°02'0 0.0
2017-Jun-21 17:28N 42°21' W 071°02'0 0.0
2017-Jun-21 16:58N 42°21' W 071°02'0 0.0
2017-Jun-21 16:28N 42°21' W 071°02'0 0.0
2017-Jun-21 15:58N 42°21' W 071°02'0 0.0
2017-Jun-21 15:28N 42°21' W 071°02'0 0.0
2017-Jun-21 14:55N 42°21' W 071°02'0 0.0
2017-Jun-21 14:28N 42°21' W 071°02'0 0.0
2017-Jun-21 13:28N 42°21' W 071°02'0 0.0
2017-Jun-21 12:55N 42°21' W 071°02'0 0.0
2017-Jun-21 12:28N 42°21' W 071°02'0 0.0
2017-Jun-21 11:58N 42°21' W 071°02'0 0.0
2017-Jun-21 11:28N 42°21' W 071°02'0 0.0
2017-Jun-21 10:58N 42°21' W 071°02'0 0.0
2017-Jun-21 10:28N 42°21' W 071°02'0 0.0
2017-Jun-21 09:58N 42°21' W 071°02'0 0.0
2017-Jun-21 09:28N 42°21' W 071°02'0 0.0
2017-Jun-21 08:58N 42°21' W 071°02'0 0.0
2017-Jun-21 08:28N 42°21' W 071°02'0 0.0
2017-Jun-21 07:58N 42°21' W 071°02'0 0.0
2017-Jun-21 07:28N 42°21' W 071°02'0 0.0
2017-Jun-21 06:58N 42°21' W 071°02'0 0.0
2017-Jun-21 06:28N 42°21' W 071°02'0 0.0
2017-Jun-21 05:58N 42°21' W 071°02'0 0.0
2017-Jun-21 05:28N 42°21' W 071°02'0 0.0
2017-Jun-21 04:58N 42°21' W 071°02'0 0.0
2017-Jun-21 04:28N 42°21' W 071°02'0 0.0
2017-Jun-21 03:58N 42°21' W 071°02'0 0.0
2017-Jun-21 03:28N 42°21' W 071°02'0 0.0
2017-Jun-21 02:58N 42°21' W 071°02'0 0.0
2017-Jun-21 02:28N 42°21' W 071°02'0 0.0
2017-Jun-21 01:58N 42°21' W 071°02'0 0.0
2017-Jun-21 01:28N 42°21' W 071°02'0 0.0
2017-Jun-21 00:58N 42°21' W 071°02'0 0.0
2017-Jun-21 00:28N 42°21' W 071°02'0 0.0
2017-Jun-20 23:58N 42°21' W 071°02'0 0.0
2017-Jun-20 23:28N 42°21' W 071°02'0 0.0
2017-Jun-20 22:58N 42°21' W 071°02'0 0.0
2017-Jun-20 22:28N 42°21' W 071°02'0 0.0
2017-Jun-20 21:58N 42°21' W 071°02'0 0.0
2017-Jun-20 21:28N 42°21' W 071°02'0 0.0
2017-Jun-20 20:58N 42°21' W 071°02'0 0.0
2017-Jun-20 20:28N 42°21' W 071°02'0 0.0
2017-Jun-20 19:58N 42°21' W 071°02'0 0.0
2017-Jun-20 19:28N 42°21' W 071°02'0 0.0
2017-Jun-20 18:58N 42°21' W 071°02'0 0.0
2017-Jun-20 18:28N 42°21' W 071°02'0 0.0
2017-Jun-20 17:58N 42°21' W 071°02'0 0.0
2017-Jun-20 17:28N 42°21' W 071°02'0 0.0
2017-Jun-20 16:58N 42°21' W 071°02'0 0.0
2017-Jun-20 16:28N 42°21' W 071°02'0 0.0
2017-Jun-20 15:58N 42°21' W 071°02'0 0.0
2017-Jun-20 15:28N 42°21' W 071°02'0 0.0
2017-Jun-20 14:58N 42°21' W 071°02'0 0.0
2017-Jun-20 13:58N 42°21' W 071°02'0 0.0
2017-Jun-20 13:28N 42°21' W 071°02'0 0.0
2017-Jun-20 12:58N 42°21' W 071°02'0 0.0
2017-Jun-20 12:28N 42°21' W 071°02'0 0.0
2017-Jun-20 11:58N 42°21' W 071°02'0 0.0
2017-Jun-20 11:28N 42°21' W 071°02'0 0.0
2017-Jun-20 10:55N 42°21' W 071°02'0 0.0
2017-Jun-20 10:28N 42°21' W 071°02'0 0.0
2017-Jun-20 09:58N 42°21' W 071°02'0 0.0
2017-Jun-20 09:28N 42°21' W 071°02'0 0.0
2017-Jun-20 08:58N 42°21' W 071°02'0 0.0
2017-Jun-20 08:28N 42°21' W 071°02'0 0.0
2017-Jun-20 07:58N 42°21' W 071°02'0 0.0
2017-Jun-20 07:28N 42°21' W 071°02'0 0.0
2017-Jun-20 06:58N 42°21' W 071°02'0 0.0
2017-Jun-20 06:28N 42°21' W 071°02'0 0.0
2017-Jun-20 05:58N 42°21' W 071°02'0 0.0
2017-Jun-20 05:28N 42°21' W 071°02'0 0.0
2017-Jun-20 04:58N 42°21' W 071°02'0 0.0
2017-Jun-20 04:28N 42°21' W 071°02'0 0.0
2017-Jun-20 03:55N 42°21' W 071°02'0 0.0
2017-Jun-20 03:25N 42°21' W 071°02'0 0.0
2017-Jun-20 02:58N 42°21' W 071°02'0 0.0
2017-Jun-20 02:28N 42°21' W 071°02'0 0.0
2017-Jun-20 01:58N 42°21' W 071°02'0 0.0
2017-Jun-20 01:28N 42°21' W 071°02'0 0.0
2017-Jun-20 00:58N 42°21' W 071°02'0 0.0
2017-Jun-20 00:28N 42°21' W 071°02'0 0.0
2017-Jun-19 23:58N 42°21' W 071°02'0 0.0
2017-Jun-19 23:28N 42°21' W 071°02'0 0.0
2017-Jun-19 22:58N 42°21' W 071°02'0 0.0
2017-Jun-19 22:28N 42°21' W 071°02'0 0.0
2017-Jun-19 21:58N 42°21' W 071°02'0 0.0
2017-Jun-19 21:28N 42°21' W 071°02'0 0.0
2017-Jun-19 20:58N 42°21' W 071°02'0 0.0
2017-Jun-19 20:28N 42°21' W 071°02'0 0.0
2017-Jun-19 19:55N 42°21' W 071°02'0 0.0
2017-Jun-19 19:28N 42°21' W 071°02'0 0.0
2017-Jun-19 18:58N 42°21' W 071°02'0 0.0
2017-Jun-19 18:25N 42°21' W 071°02'0 0.0
2017-Jun-19 17:58N 42°21' W 071°02'0 0.0
2017-Jun-19 17:28N 42°21' W 071°02'0 0.0
2017-Jun-19 16:58N 42°21' W 071°02'0 0.0
2017-Jun-19 16:28N 42°21' W 071°02'0 0.0
2017-Jun-19 15:55N 42°21' W 071°02'0 0.0
2017-Jun-19 15:25N 42°21' W 071°02'0 0.0
2017-Jun-19 14:58N 42°21' W 071°02'0 0.0
2017-Jun-19 13:58N 42°21' W 071°02'0 0.0
2017-Jun-19 13:28N 42°21' W 071°02'0 0.0
2017-Jun-19 12:58N 42°21' W 071°02'0 0.0
2017-Jun-19 12:28N 42°21' W 071°02'0 0.0
2017-Jun-19 11:58N 42°21' W 071°02'0 0.0
2017-Jun-19 11:28N 42°21' W 071°02'0 0.0
2017-Jun-19 10:58N 42°21' W 071°02'0 0.0
2017-Jun-19 10:28N 42°21' W 071°02'0 0.0
2017-Jun-19 09:58N 42°21' W 071°02'0 0.0
2017-Jun-19 09:28N 42°21' W 071°02'0 0.0
2017-Jun-19 08:58N 42°21' W 071°02'0 0.0
2017-Jun-19 08:28N 42°21' W 071°02'0 0.0
2017-Jun-19 07:58N 42°21' W 071°02'0 0.0
2017-Jun-19 07:28N 42°21' W 071°02'0 0.0
2017-Jun-19 06:58N 42°21' W 071°02'0 0.0
2017-Jun-19 06:28N 42°21' W 071°02'0 0.0
2017-Jun-19 05:58N 42°21' W 071°02'0 0.0
2017-Jun-19 05:28N 42°21' W 071°02'0 0.0
2017-Jun-19 04:58N 42°21' W 071°02'0 0.0
2017-Jun-19 04:28N 42°21' W 071°02'0 0.0
2017-Jun-19 03:55N 42°21' W 071°02'0 0.0
2017-Jun-19 03:28N 42°21' W 071°02'0 0.0
2017-Jun-19 02:58N 42°21' W 071°02'0 0.0
2017-Jun-19 02:28N 42°21' W 071°02'0 0.0
2017-Jun-19 01:55N 42°21' W 071°02'0 0.0
2017-Jun-19 01:28N 42°21' W 071°02'0 0.0
2017-Jun-19 00:58N 42°21' W 071°02'0 0.0
2017-Jun-19 00:28N 42°21' W 071°02'0 0.0
2017-Jun-18 23:52N 42°21' W 071°02'0 0.0
2017-Jun-18 23:28N 42°21' W 071°02'0 0.0
2017-Jun-18 22:58N 42°21' W 071°02'0 0.0
2017-Jun-18 22:28N 42°21' W 071°02'0 0.0
2017-Jun-18 21:58N 42°21' W 071°02'0 0.0
2017-Jun-18 21:28N 42°21' W 071°02'0 0.0
2017-Jun-18 20:58N 42°21' W 071°02'0 0.0
2017-Jun-18 20:25N 42°21' W 071°02'0 0.0
2017-Jun-18 19:58N 42°21' W 071°02'0 0.0
2017-Jun-18 19:28N 42°21' W 071°02'0 0.0
2017-Jun-18 18:58N 42°21' W 071°02'0 0.0
2017-Jun-18 18:28N 42°21' W 071°02'0 0.0
2017-Jun-18 17:58N 42°21' W 071°02'0 0.0
2017-Jun-18 17:28N 42°21' W 071°02'0 0.0
2017-Jun-18 16:58N 42°21' W 071°02'0 0.0
2017-Jun-18 16:28N 42°21' W 071°02'0 0.0
2017-Jun-18 15:58N 42°21' W 071°02'0 0.0
2017-Jun-18 15:28N 42°21' W 071°02'0 0.0
2017-Jun-18 14:58N 42°21' W 071°02'0 0.0
2017-Jun-18 13:58N 42°21' W 071°02'0 0.0
2017-Jun-18 13:28N 42°21' W 071°02'0 0.0
2017-Jun-18 12:55N 42°21' W 071°02'0 0.0
2017-Jun-18 12:28N 42°21' W 071°02'0 0.0
2017-Jun-18 11:58N 42°21' W 071°02'0 0.0
2017-Jun-18 11:28N 42°21' W 071°02'0 0.0
2017-Jun-18 10:58N 42°21' W 071°02'0 0.0
2017-Jun-18 10:28N 42°21' W 071°02'0 0.0
2017-Jun-18 09:58N 42°21' W 071°02'0 0.0
2017-Jun-18 09:28N 42°21' W 071°02'0 0.0
2017-Jun-18 08:58N 42°21' W 071°02'0 0.0
2017-Jun-18 08:28N 42°21' W 071°02'0 0.0
2017-Jun-18 07:58N 42°21' W 071°02'0 0.0
2017-Jun-18 07:28N 42°21' W 071°02'0 0.0
2017-Jun-18 06:58N 42°21' W 071°02'0 0.0
2017-Jun-18 06:28N 42°21' W 071°02'0 0.0
2017-Jun-18 05:58N 42°21' W 071°02'0 0.0
2017-Jun-18 05:28N 42°21' W 071°02'0 0.0
2017-Jun-18 04:58N 42°21' W 071°02'0 0.0
2017-Jun-18 04:28N 42°21' W 071°02'0 0.0
2017-Jun-18 03:49N 42°21' W 071°02'0 0.0
2017-Jun-18 03:28N 42°21' W 071°02'0 0.0
2017-Jun-18 02:58N 42°21' W 071°02'0 0.0
2017-Jun-18 02:28N 42°21' W 071°02'0 0.0
2017-Jun-18 01:58N 42°21' W 071°02'0 0.0
2017-Jun-18 01:25N 42°21' W 071°02'0 0.0
2017-Jun-18 00:55N 42°21' W 071°02'0 0.0
2017-Jun-18 00:28N 42°21' W 071°02'0 0.0
2017-Jun-17 23:52N 42°21' W 071°02'0 0.0
2017-Jun-17 23:28N 42°21' W 071°02'0 0.0
2017-Jun-17 22:55N 42°21' W 071°02'0 0.0
2017-Jun-17 22:28N 42°21' W 071°02'0 0.0
2017-Jun-17 21:58N 42°21' W 071°02'0 0.0
2017-Jun-17 21:19N 42°21' W 071°02'0 0.0
2017-Jun-17 20:58N 42°21' W 071°02'0 0.0
2017-Jun-17 20:28N 42°21' W 071°02'0 0.0
2017-Jun-17 19:58N 42°21' W 071°02'0 0.0
2017-Jun-17 19:28N 42°21' W 071°02'0 0.0
2017-Jun-17 19:00N 42°21' W 071°02'1 1.0
2017-Jun-17 18:30N 42°22' W 071°03'0 0.5
2017-Jun-17 18:00N 42°22' W 071°03'2 4.5
2017-Jun-17 17:30N 42°20' W 071°00'3 5.4
2017-Jun-17 17:01N 42°20' W 070°57'4 7.8
2017-Jun-17 16:30N 42°24' W 070°54'0 0.2
2017-Jun-17 15:59N 42°24' W 070°54'0 0.0
2017-Jun-17 15:29N 42°24' W 070°54'0 0.0
2017-Jun-17 14:59N 42°24' W 070°54'0 0.0
2017-Jun-17 14:29N 42°24' W 070°54'0 0.0
2017-Jun-17 13:29N 42°24' W 070°54'0 0.0
2017-Jun-17 12:59N 42°24' W 070°54'0 0.0
2017-Jun-17 12:29N 42°24' W 070°54'0 0.0
2017-Jun-17 11:59N 42°24' W 070°54'0 0.0
2017-Jun-17 11:29N 42°24' W 070°54'0 0.0
2017-Jun-17 10:59N 42°24' W 070°54'0 0.0
2017-Jun-17 10:29N 42°24' W 070°54'0 0.0
2017-Jun-17 09:59N 42°24' W 070°54'0 0.0
2017-Jun-17 09:29N 42°24' W 070°54'0 0.0
2017-Jun-17 08:59N 42°24' W 070°54'0 0.0
2017-Jun-17 08:29N 42°24' W 070°54'0 0.0
2017-Jun-17 07:53N 42°24' W 070°54'0 0.0
2017-Jun-17 07:23N 42°24' W 070°54'0 0.0
2017-Jun-17 06:59N 42°24' W 070°54'0 0.0
2017-Jun-17 06:29N 42°24' W 070°54'0 0.0
2017-Jun-17 05:59N 42°24' W 070°54'0 0.0
2017-Jun-17 05:23N 42°24' W 070°54'0 0.0
2017-Jun-17 04:59N 42°24' W 070°54'0 0.0
2017-Jun-17 04:29N 42°24' W 070°54'0 0.0
2017-Jun-17 03:59N 42°24' W 070°54'0 0.0
2017-Jun-17 03:29N 42°24' W 070°54'0 0.0
2017-Jun-17 02:59N 42°24' W 070°54'0 0.0
2017-Jun-17 02:29N 42°24' W 070°54'0 0.0
2017-Jun-17 01:56N 42°24' W 070°54'0 0.0
2017-Jun-17 01:29N 42°24' W 070°54'0 0.0
2017-Jun-17 00:59N 42°24' W 070°54'0 0.0
2017-Jun-17 00:29N 42°24' W 070°54'0 0.0
2017-Jun-16 23:59N 42°24' W 070°54'0 0.0
2017-Jun-16 23:29N 42°24' W 070°54'0 0.0
2017-Jun-16 22:59N 42°24' W 070°54'0 0.0
2017-Jun-16 22:29N 42°24' W 070°54'0 0.0
2017-Jun-16 21:56N 42°24' W 070°54'0 0.0
2017-Jun-16 21:29N 42°24' W 070°54'0 0.0
2017-Jun-16 20:59N 42°24' W 070°54'0 0.0
2017-Jun-16 20:29N 42°24' W 070°54'0 0.0
2017-Jun-16 19:59N 42°24' W 070°54'0 0.0
2017-Jun-16 19:29N 42°24' W 070°54'0 0.0
2017-Jun-16 18:59N 42°24' W 070°54'0 0.0
2017-Jun-16 18:29N 42°24' W 070°54'0 0.0
2017-Jun-16 17:59N 42°24' W 070°54'0 0.0
2017-Jun-16 17:29N 42°24' W 070°54'0 0.0
2017-Jun-16 16:59N 42°24' W 070°54'0 0.0
2017-Jun-16 16:29N 42°24' W 070°54'0 0.0
2017-Jun-16 15:59N 42°24' W 070°54'0 0.0
2017-Jun-16 15:29N 42°24' W 070°54'0 0.0
2017-Jun-16 14:59N 42°24' W 070°54'0 0.0
2017-Jun-16 14:29N 42°24' W 070°54'0 0.0
2017-Jun-16 13:29N 42°24' W 070°54'0 1.1
2017-Jun-16 13:00N 42°23' W 070°54'4 8.0
2017-Jun-16 12:30N 42°24' W 070°48'510.2
2017-Jun-16 12:00N 42°23' W 070°42'510.2
2017-Jun-16 11:30N 42°22' W 070°35'612.1
2017-Jun-16 11:00N 42°21' W 070°27'611.8
2017-Jun-16 10:30N 42°21' W 070°19'5 9.8
2017-Jun-16 10:00N 42°20' W 070°12'510.2
2017-Jun-16 09:30N 42°20' W 070°05'8 8.8
2017-Jun-16 08:37N 42°15' W 069°57'4 9.9
2017-Jun-16 08:12N 42°11' W 069°54'50392281.4
2017-Jun-16 06:00S 41°48' W 069°42'6310.4 120 / 141018.0 5.4 14.012.216.0
2017-Jun-16 00:00S 40°54' W 069°00'55 9.1 100 / 101017.5 5.4 16.5 9.716.0
2017-Jun-15 18:00S 40°00' W 069°12'50 8.4 090 / 121018.0 5.4 16.012.717.0
2017-Jun-15 12:00S 39°18' W 069°48'   140 / 191013.0 5.4 19.012.517.0

Dump ship's entire track history